createdAt,value
2023-01-19T00:01:11.783Z,100.00
2023-01-19T00:03:48.292Z,100.00
2023-01-19T00:06:40.020Z,100.00
2023-01-19T00:13:02.481Z,100.00
2023-01-19T00:15:51.825Z,100.00
2023-01-19T00:18:44.842Z,100.00
2023-01-19T00:21:21.355Z,100.00
2023-01-19T00:23:55.866Z,100.00
2023-01-19T00:26:29.085Z,100.00
2023-01-19T00:29:27.194Z,100.00
2023-01-19T00:32:31.735Z,100.00
2023-01-19T00:35:43.442Z,100.00
2023-01-19T00:38:49.957Z,100.00
2023-01-19T00:42:18.118Z,100.00
2023-01-19T00:45:20.491Z,100.00
2023-01-19T00:48:28.627Z,100.00
2023-01-19T00:51:22.690Z,100.00
2023-01-19T00:54:37.797Z,100.00
2023-01-19T00:57:26.871Z,100.00
2023-01-19T01:00:28.284Z,100.00
2023-01-19T01:03:08.898Z,100.00
2023-01-19T01:06:07.619Z,100.00
2023-01-19T01:08:47.572Z,100.00
2023-01-19T01:11:40.064Z,100.00
2023-01-19T01:14:51.418Z,100.00
2023-01-19T01:17:57.335Z,100.00
2023-01-19T01:21:13.268Z,100.00
2023-01-19T01:27:11.968Z,100.00
2023-01-19T01:30:12.186Z,100.00
2023-01-19T01:33:07.331Z,100.00
2023-01-19T01:36:12.056Z,100.00
2023-01-19T01:39:03.056Z,100.00
2023-01-19T01:41:46.184Z,100.00
2023-01-19T01:44:54.826Z,100.00
2023-01-19T01:48:01.242Z,100.00
2023-01-19T01:51:18.581Z,100.00
2023-01-19T01:57:17.688Z,100.00
2023-01-19T02:00:26.239Z,100.00
2023-01-19T02:03:19.220Z,100.00
2023-01-19T02:06:23.084Z,100.00
2023-01-19T02:09:32.397Z,100.00
2023-01-19T02:12:22.000Z,100.00
2023-01-19T02:15:24.219Z,100.00
2023-01-19T02:18:22.177Z,100.00
2023-01-19T02:21:27.344Z,100.00
2023-01-19T02:24:22.576Z,100.00
2023-01-19T02:27:23.425Z,100.00
2023-01-19T02:30:18.801Z,100.00
2023-01-19T02:33:14.097Z,100.00
2023-01-19T02:36:17.086Z,100.00
2023-01-19T02:38:49.268Z,100.00
2023-01-19T02:41:48.662Z,100.00
2023-01-19T02:44:23.864Z,100.00
2023-01-19T02:47:15.984Z,100.00
2023-01-19T02:50:36.357Z,100.00
2023-01-19T02:53:23.611Z,100.00
2023-01-19T02:56:31.776Z,100.00
2023-01-19T02:59:36.529Z,100.00
2023-01-19T03:02:38.076Z,100.00
2023-01-19T03:05:23.771Z,100.00
2023-01-19T03:08:29.489Z,100.00
2023-01-19T03:11:24.896Z,100.00
2023-01-19T03:14:20.392Z,100.00
2023-01-19T03:17:10.557Z,100.00
2023-01-19T03:19:59.806Z,100.00
2023-01-19T03:22:59.201Z,100.00
2023-01-19T03:26:00.263Z,100.00
2023-01-19T03:28:40.268Z,100.00
2023-01-19T03:31:35.738Z,100.00
2023-01-19T03:34:40.131Z,100.00
2023-01-19T03:37:34.651Z,100.00
2023-01-19T03:40:08.951Z,100.00
2023-01-19T03:43:10.325Z,100.00
2023-01-19T03:46:02.268Z,100.00
2023-01-19T03:48:37.487Z,100.00
2023-01-19T03:51:09.582Z,100.00
2023-01-19T03:54:01.115Z,100.00
2023-01-19T03:56:54.149Z,100.00
2023-01-19T03:59:48.853Z,100.00
2023-01-19T04:02:46.516Z,100.00
2023-01-19T04:06:00.558Z,100.00
2023-01-19T04:08:52.693Z,100.00
2023-01-19T04:11:44.023Z,100.00
2023-01-19T04:14:35.625Z,100.00
2023-01-19T04:17:27.868Z,100.00
2023-01-19T04:20:24.525Z,100.00
2023-01-19T04:23:19.577Z,100.00
2023-01-19T04:25:52.218Z,100.00
2023-01-19T04:28:46.277Z,100.00
2023-01-19T04:31:39.752Z,100.00
2023-01-19T04:34:29.018Z,100.00
2023-01-19T04:37:21.343Z,100.00
2023-01-19T04:40:13.522Z,100.00
2023-01-19T04:43:07.355Z,100.00
2023-01-19T04:45:37.804Z,100.00
2023-01-19T04:48:30.228Z,100.00
2023-01-19T04:51:20.610Z,100.00
2023-01-19T04:53:52.476Z,100.00
2023-01-19T04:56:44.197Z,100.00
2023-01-19T04:59:14.788Z,100.00
2023-01-19T05:01:46.553Z,100.00
2023-01-19T05:04:18.541Z,100.00
2023-01-19T05:07:10.271Z,100.00
2023-01-19T05:10:03.119Z,100.00
2023-01-19T05:13:01.427Z,100.00
2023-01-19T05:15:33.296Z,100.00
2023-01-19T05:18:28.238Z,100.00
2023-01-19T05:21:17.327Z,100.00
2023-01-19T05:24:12.101Z,100.00
2023-01-19T05:27:06.557Z,100.00
2023-01-19T05:29:43.432Z,100.00
2023-01-19T05:32:33.830Z,100.00
2023-01-19T05:35:39.841Z,100.00
2023-01-19T05:38:36.158Z,100.00
2023-01-19T05:41:07.050Z,100.00
2023-01-19T05:43:56.756Z,100.00
2023-01-19T05:47:00.134Z,100.00
2023-01-19T05:49:57.740Z,100.00
2023-01-19T05:52:50.269Z,100.00
2023-01-19T05:55:42.007Z,100.00
2023-01-19T05:58:36.971Z,100.00
2023-01-19T06:01:26.844Z,100.00
2023-01-19T06:04:23.293Z,100.00
2023-01-19T06:06:59.616Z,100.00
2023-01-19T06:09:50.077Z,100.00
2023-01-19T06:12:43.081Z,100.00
2023-01-19T06:15:37.201Z,100.00
2023-01-19T06:18:34.912Z,100.00
2023-01-19T06:21:26.383Z,100.00
2023-01-19T06:24:17.443Z,100.00
2023-01-19T06:27:09.110Z,100.00
2023-01-19T06:30:11.007Z,100.00
2023-01-19T06:32:40.217Z,100.00
2023-01-19T06:35:08.948Z,100.00
2023-01-19T06:37:36.621Z,100.00
2023-01-19T06:40:06.202Z,100.00
2023-01-19T06:42:33.983Z,100.00
2023-01-19T06:45:01.579Z,100.00
2023-01-19T06:47:29.121Z,100.00
2023-01-19T06:49:56.831Z,100.00
2023-01-19T06:52:24.421Z,100.00
2023-01-19T06:54:51.939Z,100.00
2023-01-19T06:57:19.450Z,100.00
2023-01-19T06:59:48.108Z,100.00
2023-01-19T07:02:27.292Z,100.00
2023-01-19T07:04:55.991Z,100.00
2023-01-19T07:07:23.570Z,100.00
2023-01-19T07:09:53.744Z,100.00
2023-01-19T07:12:21.926Z,100.00
2023-01-19T07:14:49.659Z,100.00
2023-01-19T07:17:18.019Z,100.00
2023-01-19T07:19:45.905Z,100.00
2023-01-19T07:22:13.505Z,100.00
2023-01-19T07:24:41.077Z,100.00
2023-01-19T07:27:10.817Z,100.00
2023-01-19T07:29:38.770Z,100.00
2023-01-19T07:32:06.864Z,100.00
2023-01-19T07:34:35.898Z,100.00
2023-01-19T07:37:03.931Z,100.00
2023-01-19T07:39:31.524Z,100.00
2023-01-19T07:41:59.140Z,100.00
2023-01-19T07:44:26.951Z,100.00
2023-01-19T07:46:54.454Z,100.00
2023-01-19T07:49:22.805Z,100.00
2023-01-19T07:51:51.410Z,100.00
2023-01-19T07:54:20.403Z,100.00
2023-01-19T07:56:50.540Z,100.00
2023-01-19T07:59:18.059Z,100.00
2023-01-19T08:01:52.784Z,100.00
2023-01-19T08:04:24.206Z,100.00
2023-01-19T08:06:56.281Z,100.00
2023-01-19T08:09:24.619Z,100.00
2023-01-19T08:11:52.674Z,100.00
2023-01-19T08:14:20.830Z,100.00
2023-01-19T08:16:48.527Z,100.00
2023-01-19T08:19:18.823Z,100.00
2023-01-19T08:21:47.468Z,100.00
2023-01-19T08:24:22.829Z,100.00
2023-01-19T08:27:16.464Z,100.00
2023-01-19T08:29:47.264Z,100.00
2023-01-19T08:32:16.537Z,100.00
2023-01-19T08:34:46.500Z,100.00
2023-01-19T08:37:16.680Z,100.00
2023-01-19T08:39:46.919Z,100.00
2023-01-19T08:42:16.258Z,100.00
2023-01-19T08:44:57.603Z,100.00
2023-01-19T08:47:29.650Z,100.00
2023-01-19T08:50:04.907Z,100.00
2023-01-19T08:52:33.300Z,100.00
2023-01-19T08:55:10.686Z,100.00
2023-01-19T08:57:40.493Z,100.00
2023-01-19T09:00:25.308Z,100.00
2023-01-19T09:03:03.729Z,100.00
2023-01-19T09:05:34.969Z,100.00
2023-01-19T09:08:09.864Z,100.00
2023-01-19T09:10:41.150Z,100.00
2023-01-19T09:13:15.936Z,100.00
2023-01-19T09:15:48.574Z,100.00
2023-01-19T09:18:22.327Z,100.00
2023-01-19T09:20:59.257Z,100.00
2023-01-19T09:23:28.656Z,100.00
2023-01-19T09:25:59.037Z,100.00
2023-01-19T09:28:30.126Z,100.00
2023-01-19T09:31:08.999Z,100.00
2023-01-19T09:33:55.893Z,100.00
2023-01-19T09:36:25.716Z,100.00
2023-01-19T09:38:54.271Z,100.00
2023-01-19T09:41:25.295Z,100.00
2023-01-19T09:43:57.719Z,100.00
2023-01-19T09:46:35.797Z,100.00
2023-01-19T09:49:11.506Z,100.00
2023-01-19T09:51:41.499Z,100.00
2023-01-19T09:54:15.077Z,100.00
2023-01-19T09:56:43.295Z,100.00
2023-01-19T09:59:30.005Z,100.00
2023-01-19T10:02:15.306Z,100.00
2023-01-19T10:04:54.657Z,100.00
2023-01-19T10:07:36.072Z,100.00
2023-01-19T10:10:17.276Z,100.00
2023-01-19T10:13:03.096Z,100.00
2023-01-19T10:15:43.753Z,100.00
2023-01-19T10:18:17.715Z,100.00
2023-01-19T10:20:50.260Z,100.00
2023-01-19T10:23:30.702Z,100.00
2023-01-19T10:26:02.621Z,100.00
2023-01-19T10:28:31.092Z,100.00
2023-01-19T10:31:00.248Z,100.00
2023-01-19T10:33:35.277Z,100.00
2023-01-19T10:36:07.196Z,100.00
2023-01-19T10:38:36.603Z,100.00
2023-01-19T10:41:11.219Z,100.00
2023-01-19T10:43:45.769Z,100.00
2023-01-19T10:46:22.878Z,100.00
2023-01-19T10:48:52.962Z,100.00
2023-01-19T10:51:22.758Z,100.00
2023-01-19T10:53:58.438Z,100.00
2023-01-19T10:56:30.591Z,100.00
2023-01-19T10:59:01.567Z,100.00
2023-01-19T11:01:37.133Z,100.00
2023-01-19T11:07:16.726Z,100.00
2023-01-19T11:09:49.925Z,100.00
2023-01-19T11:12:22.798Z,100.00
2023-01-19T11:14:54.208Z,100.00
2023-01-19T11:17:27.674Z,100.00
2023-01-19T11:20:10.206Z,100.00
2023-01-19T11:22:40.782Z,100.00
2023-01-19T11:25:28.123Z,100.00
2023-01-19T11:27:58.566Z,100.00
2023-01-19T11:30:30.891Z,100.00
2023-01-19T11:33:01.673Z,100.00
2023-01-19T11:35:37.133Z,100.00
2023-01-19T11:38:19.292Z,100.00
2023-01-19T11:40:55.693Z,100.00
2023-01-19T11:43:43.344Z,100.00
2023-01-19T11:46:19.688Z,100.00
2023-01-19T11:48:57.778Z,100.00
2023-01-19T11:51:34.208Z,100.00
2023-01-19T11:54:15.606Z,100.00
2023-01-19T11:56:48.586Z,100.00
2023-01-19T11:59:19.288Z,100.00
2023-01-19T12:01:57.884Z,100.00
2023-01-19T12:04:33.421Z,100.00
2023-01-19T12:07:10.502Z,100.00
2023-01-19T12:09:42.954Z,100.00
2023-01-19T12:12:25.371Z,100.00
2023-01-19T12:15:02.533Z,100.00
2023-01-19T12:17:36.418Z,100.00
2023-01-19T12:20:16.258Z,100.00
2023-01-19T12:22:53.395Z,100.00
2023-01-19T12:25:24.610Z,100.00
2023-01-19T12:27:56.357Z,100.00
2023-01-19T12:30:30.226Z,100.00
2023-01-19T12:33:34.291Z,100.00
2023-01-19T12:36:09.802Z,100.00
2023-01-19T12:38:47.656Z,100.00
2023-01-19T12:41:32.264Z,100.00
2023-01-19T12:44:23.331Z,100.00
2023-01-19T12:47:03.370Z,100.00
2023-01-19T12:49:41.179Z,100.00
2023-01-19T12:52:30.737Z,100.00
2023-01-19T12:55:07.877Z,100.00
2023-01-19T12:57:38.317Z,100.00
2023-01-19T13:00:30.932Z,100.00
2023-01-19T13:03:02.337Z,100.00
2023-01-19T13:05:54.350Z,100.00
2023-01-19T13:08:29.605Z,100.00
2023-01-19T13:11:24.959Z,100.00
2023-01-19T13:14:35.537Z,100.00
2023-01-19T13:17:18.100Z,100.00
2023-01-19T13:19:55.694Z,100.00
2023-01-19T13:23:15.141Z,100.00
2023-01-19T13:25:52.384Z,100.00
2023-01-19T13:28:29.329Z,100.00
2023-01-19T13:31:02.973Z,100.00
2023-01-19T13:33:41.101Z,100.00
2023-01-19T13:36:22.325Z,100.00
2023-01-19T13:38:53.916Z,100.00
2023-01-19T13:41:28.696Z,100.00
2023-01-19T13:44:04.372Z,100.00
2023-01-19T13:46:35.119Z,100.00
2023-01-19T13:49:21.035Z,100.00
2023-01-19T13:52:08.859Z,98.73
2023-01-19T13:54:47.795Z,96.37
2023-01-19T13:57:27.327Z,98.13
2023-01-19T14:00:16.639Z,98.30
2023-01-19T14:03:00.164Z,95.11
2023-01-19T14:05:33.512Z,95.89
2023-01-19T14:08:06.375Z,99.73
2023-01-19T14:10:40.106Z,100.00
2023-01-19T14:13:18.274Z,100.00
2023-01-19T14:15:50.679Z,100.00
2023-01-19T14:18:30.955Z,100.00
2023-01-19T14:21:06.079Z,100.00
2023-01-19T14:23:43.351Z,100.00
2023-01-19T14:26:46.173Z,100.00
2023-01-19T14:29:32.868Z,100.00
2023-01-19T14:32:15.785Z,100.00
2023-01-19T14:34:50.486Z,100.00
2023-01-19T14:37:25.343Z,100.00
2023-01-19T14:39:59.575Z,100.00
2023-01-19T14:42:34.554Z,100.00
2023-01-19T14:45:10.006Z,100.00
2023-01-19T14:47:44.550Z,100.00
2023-01-19T14:50:26.198Z,100.00
2023-01-19T14:53:02.355Z,100.00
2023-01-19T14:55:37.468Z,100.00
2023-01-19T14:58:14.207Z,100.00
2023-01-19T15:00:46.161Z,100.00
2023-01-19T15:03:17.709Z,100.00
2023-01-19T15:06:01.895Z,100.00
2023-01-19T15:08:37.635Z,100.00
2023-01-19T15:11:13.871Z,100.00
2023-01-19T15:13:46.662Z,100.00
2023-01-19T15:16:17.102Z,100.00
2023-01-19T15:18:49.122Z,100.00
2023-01-19T15:21:23.866Z,100.00
2023-01-19T15:23:57.516Z,100.00
2023-01-19T15:26:28.758Z,100.00
2023-01-19T15:28:59.618Z,100.00
2023-01-19T15:31:30.074Z,100.00
2023-01-19T15:34:04.440Z,100.00
2023-01-19T15:36:35.167Z,100.00
2023-01-19T15:39:05.992Z,100.00
2023-01-19T15:41:37.115Z,100.00
2023-01-19T15:44:09.495Z,100.00
2023-01-19T15:46:40.188Z,100.00
2023-01-19T15:49:19.405Z,100.00
2023-01-19T15:51:52.791Z,100.00
2023-01-19T15:54:23.775Z,100.00
2023-01-19T15:56:57.308Z,100.00
2023-01-19T15:59:32.941Z,100.00
2023-01-19T16:02:07.696Z,100.00
2023-01-19T16:04:41.862Z,100.00
2023-01-19T16:07:14.229Z,100.00
2023-01-19T16:09:48.160Z,100.00
2023-01-19T16:12:23.133Z,100.00
2023-01-19T16:15:02.447Z,100.00
2023-01-19T16:17:44.903Z,100.00
2023-01-19T16:20:19.973Z,100.00
2023-01-19T16:23:00.663Z,100.00
2023-01-19T16:28:27.726Z,100.00
2023-01-19T16:32:09.557Z,100.00
2023-01-19T16:35:30.436Z,100.00
2023-01-19T16:38:05.447Z,100.00
2023-01-19T16:40:36.009Z,100.00
2023-01-19T16:43:06.662Z,100.00
2023-01-19T16:45:59.477Z,100.00
2023-01-19T16:48:31.850Z,100.00
2023-01-19T16:51:07.392Z,100.00
2023-01-19T16:53:38.047Z,100.00
2023-01-19T16:56:15.301Z,100.00
2023-01-19T16:58:48.399Z,100.00
2023-01-19T17:01:57.351Z,100.00
2023-01-19T17:04:52.561Z,100.00
2023-01-19T17:07:51.524Z,100.00
2023-01-19T17:10:31.552Z,100.00
2023-01-19T17:13:26.340Z,100.00
2023-01-19T17:16:23.374Z,100.00
2023-01-19T17:19:17.716Z,100.00
2023-01-19T17:22:21.219Z,100.00
2023-01-19T17:25:26.036Z,100.00
2023-01-19T17:28:16.843Z,100.00
2023-01-19T17:30:57.893Z,100.00
2023-01-19T17:34:04.240Z,100.00
2023-01-19T17:37:18.797Z,100.00
2023-01-19T17:40:00.694Z,100.00
2023-01-19T17:43:04.210Z,100.00
2023-01-19T17:46:19.704Z,100.00
2023-01-19T17:49:14.468Z,100.00
2023-01-19T17:52:17.894Z,100.00
2023-01-19T17:55:01.994Z,100.00
2023-01-19T17:58:08.173Z,100.00
2023-01-19T18:01:25.511Z,100.00
2023-01-19T18:04:49.152Z,100.00
2023-01-19T18:07:46.870Z,100.00
2023-01-19T18:10:49.032Z,100.00
2023-01-19T18:13:31.072Z,100.00
2023-01-19T18:16:07.247Z,100.00
2023-01-19T18:18:44.050Z,100.00
2023-01-19T18:21:23.609Z,100.00
2023-01-19T18:24:35.858Z,100.00
2023-01-19T18:27:34.948Z,100.00
2023-01-19T18:30:29.003Z,100.00
2023-01-19T18:33:35.029Z,100.00
2023-01-19T18:36:44.431Z,100.00
2023-01-19T18:39:21.987Z,100.00
2023-01-19T18:42:01.374Z,100.00
2023-01-19T18:44:45.583Z,100.00
2023-01-19T18:47:22.548Z,100.00
2023-01-19T18:50:19.429Z,100.00
2023-01-19T18:53:13.944Z,100.00
2023-01-19T18:56:08.947Z,100.00
2023-01-19T18:58:47.840Z,100.00
2023-01-19T19:01:37.151Z,100.00
2023-01-19T19:04:41.409Z,100.00
2023-01-19T19:07:40.327Z,100.00
2023-01-19T19:10:40.983Z,100.00
2023-01-19T19:16:57.627Z,100.00
2023-01-19T19:19:37.909Z,100.00
2023-01-19T19:22:29.371Z,100.00
2023-01-19T19:25:25.259Z,100.00
2023-01-19T19:28:18.306Z,100.00
2023-01-19T19:31:04.324Z,100.00
2023-01-19T19:34:06.513Z,100.00
2023-01-19T19:36:50.499Z,100.00
2023-01-19T19:39:26.586Z,100.00
2023-01-19T19:42:32.236Z,100.00
2023-01-19T19:45:30.568Z,100.00
2023-01-19T19:48:25.029Z,100.00
2023-01-19T19:51:23.970Z,100.00
2023-01-19T19:53:57.938Z,100.00
2023-01-19T19:56:36.869Z,100.00
2023-01-19T19:59:41.258Z,100.00
2023-01-19T20:02:24.884Z,100.00
2023-01-19T20:05:27.869Z,100.00
2023-01-19T20:08:08.808Z,100.00
2023-01-19T20:13:49.772Z,100.00
2023-01-19T20:16:47.287Z,100.00
2023-01-19T20:19:44.536Z,100.00
2023-01-19T20:22:38.836Z,100.00
2023-01-19T20:25:14.521Z,100.00
2023-01-19T20:28:13.837Z,100.00
2023-01-19T20:31:15.066Z,100.00
2023-01-19T20:33:46.569Z,100.00
2023-01-19T20:36:18.025Z,100.00
2023-01-19T20:38:49.402Z,100.00
2023-01-19T20:41:20.763Z,100.00
2023-01-19T20:43:51.722Z,100.00
2023-01-19T20:46:22.936Z,100.00
2023-01-19T20:48:55.212Z,100.00
2023-01-19T20:51:27.023Z,100.00
2023-01-19T20:53:57.581Z,100.00
2023-01-19T20:56:28.914Z,100.00
2023-01-19T20:59:02.236Z,100.00
2023-01-19T21:01:34.124Z,100.00
2023-01-19T21:04:04.956Z,100.00
2023-01-19T21:06:37.333Z,100.00
2023-01-19T21:09:10.406Z,100.00
2023-01-19T21:11:42.311Z,100.00
2023-01-19T21:14:14.766Z,100.00
2023-01-19T21:16:48.421Z,100.00
2023-01-19T21:19:19.147Z,100.00
2023-01-19T21:21:50.221Z,100.00
2023-01-19T21:24:20.871Z,100.00
2023-01-19T21:26:53.434Z,100.00
2023-01-19T21:29:24.161Z,100.00
2023-01-19T21:31:55.699Z,100.00
2023-01-19T21:34:26.982Z,100.00
2023-01-19T21:36:58.009Z,100.00
2023-01-19T21:39:30.015Z,100.00
2023-01-19T21:42:02.753Z,100.00
2023-01-19T21:44:33.495Z,100.00
2023-01-19T21:47:09.078Z,100.00
2023-01-19T21:49:40.460Z,100.00
2023-01-19T21:52:13.732Z,100.00
2023-01-19T21:54:44.360Z,100.00
2023-01-19T21:57:15.618Z,100.00
2023-01-19T21:59:47.986Z,100.00
2023-01-19T22:02:37.715Z,100.00
2023-01-19T22:05:11.901Z,100.00
2023-01-19T22:07:42.904Z,100.00
2023-01-19T22:10:15.439Z,100.00
2023-01-19T22:12:46.482Z,100.00
2023-01-19T22:15:19.547Z,100.00
2023-01-19T22:17:50.457Z,100.00
2023-01-19T22:20:21.639Z,100.00
2023-01-19T22:22:52.601Z,100.00
2023-01-19T22:25:28.701Z,100.00
2023-01-19T22:28:01.237Z,100.00
2023-01-19T22:30:32.656Z,100.00
2023-01-19T22:33:03.170Z,100.00
2023-01-19T22:35:34.190Z,100.00
2023-01-19T22:38:04.752Z,100.00
2023-01-19T22:40:36.729Z,100.00
2023-01-19T22:43:07.409Z,100.00
2023-01-19T22:45:43.289Z,100.00
2023-01-19T22:48:15.127Z,100.00
2023-01-19T22:50:49.442Z,100.00
2023-01-19T22:53:19.952Z,100.00
2023-01-19T22:55:50.929Z,100.00
2023-01-19T22:58:21.642Z,100.00
2023-01-19T23:00:52.767Z,100.00
2023-01-19T23:03:24.068Z,100.00
2023-01-19T23:05:55.487Z,100.00
2023-01-19T23:08:26.466Z,100.00
2023-01-19T23:10:57.880Z,100.00
2023-01-19T23:13:30.155Z,100.00
2023-01-19T23:16:01.312Z,100.00
2023-01-19T23:18:36.449Z,100.00
2023-01-19T23:21:09.853Z,100.00
2023-01-19T23:23:40.850Z,100.00
2023-01-19T23:26:20.820Z,100.00
2023-01-19T23:28:57.043Z,100.00
2023-01-19T23:31:30.557Z,100.00
2023-01-19T23:34:03.628Z,100.00
2023-01-19T23:36:36.589Z,100.00
2023-01-19T23:39:13.348Z,100.00
2023-01-19T23:41:47.388Z,100.00
2023-01-19T23:44:18.337Z,100.00
2023-01-19T23:46:49.019Z,100.00
2023-01-19T23:49:19.671Z,100.00
2023-01-19T23:51:52.787Z,100.00
2023-01-19T23:54:25.627Z,100.00
2023-01-19T23:56:57.165Z,100.00
2023-01-19T23:59:28.903Z,100.00
